Hauptseite
METAR-TAF:

METAR-TAF

Flughäfen :

Flughafen Kairo

Kairo, Ägypten

Breite: 30-08N, Länge: 031-24E, Höhe: 64 m

Beobachtung

Neuester Wetterbericht von vor 23 Minuten, um 08:30 UTC
Wind 8 kt aus Nord/Nordwest
Temperatur 31°C
Luftfeuchtigkeit 52%
Luftdruck 1011 hPa
Sichtweite 10 km oder mehr
Aufgelockert bewölkt in der Höhe von 2500 ft

METAR: HECA 170830Z 34008KT 9999 SCT025 31/20 Q1011 NOSIG

Zeit: 10:53 (08:53 UTC)

Prognose

Neuester Wetterbericht von vor 3 Stunden und 53 Minuten, um 05:00 UTC
Gültige Prognose vom 17 um 06 UTC bis 18 um 12 UTC
Wind 8 kt aus Nord
Sichtweite 10 km oder mehr
Aufgelockert bewölkt in der Höhe von 2500 ft
Übergehend zu
vom 17 um 10 UTC bis 17 um 12 UTC
Sichtweite 10 km oder mehr
keine Wolken unter 1500 m und keine Kumulonimbus oder Gewitterwolken

TAF: HECA 170500Z 1706/1812 35008KT 9999 SCT025 BECMG 1710/1712 CAVOK

Wetterbeobachtungen und Prognosen von mehr als 4000 Flughäfen (METAR und TAF Bericht).

Die verfügbaren Stationen werden durch gelbe und rote Markierungen auf der Karte dargestellt.

Führen Sie die Maus auf sie, um den Namen der Station zu sehen.

Darauf klicken, um die Beobachtung von Wetterbeobachtungen und Prognosen zu sehen.

Um die Karte zu ändern : klicken Sie auf den grünen Tasten mit einem schwarzen Kreuz Zum Vergrößern, auf den grünen Button mit einem Gedankenstrich zu verkleinern, oder auf die grünen Pfeile für benachbarte Karten.


METAR-TAF: